Time;durP1;ratioP1;P1;durP2;ratioP2;P2;SDS_P1;SDS_P2;PMS_P1;PMS_P2;Temp;Humidity;BMP_temperature;BMP_pressure;BME280_temperature;BME280_humidity;BME280_pressure;Samples;Min_cycle;Max_cycle;Signal;HPM_P1;HPM_P2
2023/04/21 00:00:43;;;;;;;30.48;23.30;;;;;;;8.98;89.60;101420.91;5091700;28;20146;-43
2023/04/21 00:03:08;;;;;;;27.77;22.95;;;;;;;8.99;89.55;101420.66;5091467;28;20039;-44
2023/04/21 00:05:33;;;;;;;27.70;23.13;;;;;;;8.96;89.82;101407.41;5091286;28;20029;-44
2023/04/21 00:07:59;;;;;;;29.40;23.13;;;;;;;9.01;90.05;101399.13;5091434;28;20032;-44
2023/04/21 00:10:24;;;;;;;29.77;23.30;;;;;;;8.99;90.04;101395.81;5091592;28;20032;-45
2023/04/21 00:12:49;;;;;;;29.45;23.52;;;;;;;8.96;90.12;101388.09;5091620;28;20142;-46
2023/04/21 00:15:15;;;;;;;29.02;23.50;;;;;;;8.92;89.99;101387.00;5091428;28;20122;-44
2023/04/21 00:17:40;;;;;;;28.75;23.85;;;;;;;8.95;90.07;101391.13;5091568;28;20036;-44
2023/04/21 00:20:07;;;;;;;29.90;24.02;;;;;;;8.99;90.36;101381.16;5091322;28;20036;-44
2023/04/21 00:22:33;;;;;;;30.17;23.80;;;;;;;8.95;89.97;101391.13;5091555;28;20059;-45
2023/04/21 00:24:58;;;;;;;27.80;22.52;;;;;;;8.97;90.06;101386.97;5091325;28;20161;-42
2023/04/21 00:27:23;;;;;;;29.98;24.33;;;;;;;8.93;89.94;101374.03;5091386;28;20036;-46
2023/04/21 00:29:49;;;;;;;29.48;23.20;;;;;;;8.94;89.69;101364.66;5091248;28;20047;-44
2023/04/21 00:32:15;;;;;;;28.92;22.88;;;;;;;8.94;90.28;101362.69;5091343;28;20085;-43
2023/04/21 00:34:40;;;;;;;28.95;23.45;;;;;;;8.88;90.15;101367.41;5090108;28;20032;-44
2023/04/21 00:37:05;;;;;;;29.45;23.25;;;;;;;8.86;90.23;101379.84;5093871;28;20396;-42
2023/04/21 00:39:31;;;;;;;28.30;22.98;;;;;;;8.84;90.67;101368.25;5091807;28;20496;-44
2023/04/21 00:41:56;;;;;;;29.60;23.88;;;;;;;8.80;90.82;101373.50;5094586;28;20016;-43
2023/04/21 00:44:21;;;;;;;29.17;23.25;;;;;;;8.78;91.98;101367.47;5094281;28;20115;-44
2023/04/21 00:46:47;;;;;;;30.38;22.73;;;;;;;8.76;91.35;101366.91;5095159;28;20447;-43
2023/04/21 00:49:13;;;;;;;28.67;22.98;;;;;;;8.76;91.21;101379.88;5094844;28;20036;-45
2023/04/21 00:51:39;;;;;;;28.85;23.65;;;;;;;8.74;91.85;101382.91;5094877;28;20440;-43
2023/04/21 00:54:06;;;;;;;29.38;23.65;;;;;;;8.70;92.45;101379.91;5093088;28;20047;-43
2023/04/21 00:56:33;;;;;;;28.63;22.45;;;;;;;8.68;92.45;101368.31;5094750;28;20032;-46
2023/04/21 00:59:00;;;;;;;30.73;23.40;;;;;;;8.68;92.82;101367.50;5092838;28;20053;-44
2023/04/21 01:01:29;;;;;;;29.13;22.52;;;;;;;8.67;92.73;101363.91;5094537;28;20492;-43
2023/04/21 01:03:59;;;;;;;29.92;24.02;;;;;;;8.67;93.48;101363.91;5094451;28;20403;-43
2023/04/21 01:06:28;;;;;;;30.45;23.98;;;;;;;8.59;93.33;101356.22;5094471;28;20084;-45
2023/04/21 01:08:54;;;;;;;29.58;23.80;;;;;;;8.63;93.64;101359.22;5094271;28;20036;-43
2023/04/21 01:11:20;;;;;;;30.70;24.75;;;;;;;8.63;93.50;101361.97;5094258;28;20480;-44
2023/04/21 01:13:46;;;;;;;30.02;24.65;;;;;;;8.60;93.89;101360.63;5092897;28;20039;-44
2023/04/21 01:16:17;;;;;;;30.20;24.45;;;;;;;8.61;94.64;101356.75;5094515;28;20039;-45
2023/04/21 01:18:44;;;;;;;30.42;24.80;;;;;;;8.57;94.42;101350.97;5094132;28;20020;-44
2023/04/21 01:21:10;;;;;;;30.83;25.45;;;;;;;8.53;95.03;101349.06;5094298;28;20051;-45
2023/04/21 01:23:35;;;;;;;30.67;24.60;;;;;;;8.51;94.93;101349.31;5093812;28;20078;-45
2023/04/21 01:26:01;;;;;;;30.15;24.60;;;;;;;8.53;95.51;101343.53;5094014;28;20461;-43
2023/04/21 01:28:26;;;;;;;31.15;24.73;;;;;;;8.52;95.44;101348.22;5093967;28;20501;-43
2023/04/21 01:30:52;;;;;;;31.45;25.23;;;;;;;8.52;95.73;101350.16;5092300;28;20032;-43
2023/04/21 01:33:19;;;;;;;31.65;25.20;;;;;;;8.55;95.66;101344.91;5093947;28;20050;-43
2023/04/21 01:35:45;;;;;;;32.10;24.90;;;;;;;8.58;95.42;101352.63;5091585;28;20032;-43
2023/04/21 01:38:10;;;;;;;31.42;25.27;;;;;;;8.59;95.40;101342.41;5089575;28;20028;-45
2023/04/21 01:40:36;;;;;;;30.60;24.40;;;;;;;8.64;94.96;101344.34;5093673;28;20409;-43
2023/04/21 01:43:02;;;;;;;30.23;23.73;;;;;;;8.63;94.88;101346.28;5093772;28;20459;-43
2023/04/21 01:45:29;;;;;;;31.48;25.15;;;;;;;8.61;95.02;101347.63;5093712;28;20032;-42
2023/04/21 01:47:54;;;;;;;30.70;24.40;;;;;;;8.51;94.56;101312.66;5092977;28;20024;-46
2023/04/21 01:50:19;;;;;;;31.38;25.50;;;;;;;8.55;94.93;101317.34;5093422;28;20024;-43
2023/04/21 01:52:44;;;;;;;31.02;24.83;;;;;;;8.56;94.97;101324.50;5093622;28;20047;-43
2023/04/21 01:55:10;;;;;;;30.23;24.88;;;;;;;8.56;95.19;101315.38;5093406;28;20071;-43
2023/04/21 01:57:35;;;;;;;30.02;23.65;;;;;;;8.62;95.00;101316.19;5093605;28;20181;-42
2023/04/21 02:00:02;;;;;;;31.27;23.98;;;;;;;8.66;94.65;101318.13;5093490;28;20028;-42
2023/04/21 02:02:28;;;;;;;31.50;25.88;;;;;;;8.64;94.58;101317.59;5093105;28;20089;-43
2023/04/21 02:04:53;;;;;;;31.20;24.92;;;;;;;8.62;95.20;101318.97;5091647;28;20473;-44
2023/04/21 02:07:18;;;;;;;32.58;25.23;;;;;;;8.70;95.84;101307.34;5093282;28;20081;-44
2023/04/21 02:09:43;;;;;;;32.35;24.88;;;;;;;8.78;95.44;101297.66;5093054;28;20030;-44
2023/04/21 02:12:10;;;;;;;31.60;24.45;;;;;;;8.84;94.93;101282.72;5074909;28;20515;-43
2023/04/21 02:14:36;;;;;;;32.58;25.75;;;;;;;8.89;94.36;101280.75;5093140;28;20035;-46
2023/04/21 02:17:02;;;;;;;32.72;25.13;;;;;;;8.86;94.09;101289.63;5093084;28;20016;-45
2023/04/21 02:19:27;;;;;;;32.13;25.90;;;;;;;8.81;94.11;101297.91;5093180;28;20028;-43
2023/04/21 02:21:53;;;;;;;34.10;26.63;;;;;;;8.74;94.30;101269.81;5093071;28;20024;-43
2023/04/21 02:24:18;;;;;;;33.15;26.08;;;;;;;8.81;94.86;101283.31;5092751;28;20110;-43
2023/04/21 02:26:43;;;;;;;33.13;27.17;;;;;;;8.78;94.16;101273.66;5092817;28;20400;-44
2023/04/21 02:29:09;;;;;;;32.83;27.20;;;;;;;8.78;94.70;101284.72;5092611;28;20036;-43
2023/04/21 02:31:34;;;;;;;33.17;26.58;;;;;;;8.75;94.79;101293.53;5092700;28;20089;-47
2023/04/21 02:34:00;;;;;;;35.42;27.85;;;;;;;8.68;95.18;101298.53;5092020;28;20035;-43
2023/04/21 02:36:26;;;;;;;33.75;25.92;;;;;;;8.64;95.96;101295.53;5072343;28;20565;-45
2023/04/21 02:38:51;;;;;;;33.78;26.83;;;;;;;8.68;96.28;101287.50;5068426;28;20032;-44
2023/04/21 02:41:16;;;;;;;34.65;27.52;;;;;;;8.66;95.35;101282.25;5091449;28;20387;-43
2023/04/21 02:43:41;;;;;;;34.17;26.70;;;;;;;8.68;96.04;101282.00;5092581;28;20067;-42
2023/04/21 02:46:07;;;;;;;34.10;26.65;;;;;;;8.68;96.17;101279.25;5073439;28;20047;-44
2023/04/21 02:48:35;;;;;;;36.53;27.85;;;;;;;8.65;95.52;101277.03;5070713;28;20398;-43
2023/04/21 02:51:01;;;;;;;35.42;26.77;;;;;;;8.65;96.46;101268.75;5088573;28;20032;-44
2023/04/21 02:53:26;;;;;;;35.80;28.25;;;;;;;8.59;96.33;101259.69;5092291;28;20031;-43
2023/04/21 02:55:51;;;;;;;35.55;27.42;;;;;;;8.60;96.01;101257.75;5092228;28;20333;-43
2023/04/21 02:58:17;;;;;;;37.63;29.02;;;;;;;8.60;96.39;101263.28;5091258;28;20430;-45
2023/04/21 03:00:42;;;;;;;36.25;28.90;;;;;;;8.56;96.17;101257.47;5092142;28;20042;-46
2023/04/21 03:03:08;;;;;;;37.22;28.27;;;;;;;8.52;96.64;101251.72;5092154;28;20446;-46
2023/04/21 03:05:33;;;;;;;35.00;27.77;;;;;;;8.57;96.49;101259.97;5092025;28;20484;-43
2023/04/21 03:07:59;;;;;;;36.50;28.50;;;;;;;8.55;96.40;101262.19;5092095;28;20055;-44
2023/04/21 03:10:24;;;;;;;37.92;29.05;;;;;;;8.51;96.86;101268.53;5092218;28;20367;-42
2023/04/21 03:12:49;;;;;;;39.45;30.15;;;;;;;8.52;97.24;101268.25;5091768;28;20491;-45
2023/04/21 03:15:15;;;;;;;38.13;29.42;;;;;;;8.49;97.02;101251.44;5091831;28;20030;-46
2023/04/21 03:17:41;;;;;;;38.63;29.90;;;;;;;8.52;97.29;101262.72;5091887;28;20060;-44
2023/04/21 03:20:07;;;;;;;38.22;30.02;;;;;;;8.50;97.35;101259.44;5091822;28;20520;-46
2023/04/21 03:22:34;;;;;;;38.38;29.02;;;;;;;8.51;98.12;101260.28;5091406;28;20474;-44
2023/04/21 03:24:59;;;;;;;37.47;27.80;;;;;;;8.50;97.49;101251.16;5091895;28;20047;-46
2023/04/21 03:27:25;;;;;;;36.92;29.95;;;;;;;8.46;97.56;101243.69;5091535;28;20050;-44
2023/04/21 03:29:50;;;;;;;38.28;29.48;;;;;;;8.51;97.48;101250.06;5091717;28;20373;-43
2023/04/21 03:32:16;;;;;;;40.08;31.02;;;;;;;8.46;97.19;101250.06;5091651;28;20035;-43
2023/04/21 03:34:41;;;;;;;39.30;29.75;;;;;;;8.43;97.18;101245.94;5091471;28;20024;-45
2023/04/21 03:37:06;;;;;;;37.65;29.45;;;;;;;8.42;97.51;101240.69;5090786;28;20039;-43
2023/04/21 03:39:31;;;;;;;38.25;28.85;;;;;;;8.38;97.66;101243.19;5088015;28;20024;-46
2023/04/21 03:41:57;;;;;;;39.65;30.40;;;;;;;8.36;98.15;101239.88;5091593;28;20032;-44
2023/04/21 03:44:25;;;;;;;37.95;29.55;;;;;;;8.35;97.88;101241.00;5091476;28;20031;-44
2023/04/21 03:46:54;;;;;;;40.08;30.30;;;;;;;8.38;97.71;101236.84;5071328;28;20539;-44
2023/04/21 03:49:20;;;;;;;40.10;30.55;;;;;;;8.41;97.89;101245.38;5071267;28;20073;-44
2023/04/21 03:51:45;;;;;;;41.03;30.00;;;;;;;8.44;97.59;101235.72;5090630;28;20115;-44
2023/04/21 03:54:11;;;;;;;39.67;30.90;;;;;;;8.39;97.62;101236.56;5091650;28;20024;-44
2023/04/21 03:56:36;;;;;;;42.03;30.95;;;;;;;8.35;98.45;101229.13;5091211;28;20032;-46
2023/04/21 03:59:01;;;;;;;39.80;31.60;;;;;;;8.33;98.18;101234.09;5091294;28;20024;-43
2023/04/21 04:01:27;;;;;;;39.90;30.63;;;;;;;8.30;98.03;101235.50;5073660;28;20020;-45
2023/04/21 04:03:52;;;;;;;41.17;32.05;;;;;;;8.26;97.92;101235.25;5071218;28;20024;-46
2023/04/21 04:06:18;;;;;;;40.00;30.83;;;;;;;8.24;98.67;101244.91;5069751;28;20398;-46
2023/04/21 04:08:43;;;;;;;40.90;32.13;;;;;;;8.14;98.61;101242.97;5070792;28;20064;-45
2023/04/21 04:11:08;;;;;;;42.17;32.15;;;;;;;8.06;98.60;101247.16;5086873;28;20472;-45
2023/04/21 04:13:34;;;;;;;41.40;32.38;;;;;;;8.06;98.95;101254.59;5095251;28;20072;-45
2023/04/21 04:15:59;;;;;;;41.45;32.05;;;;;;;7.99;99.02;101249.34;5094828;28;20118;-43
2023/04/21 04:18:24;;;;;;;39.92;30.70;;;;;;;7.96;99.15;101249.94;5095102;28;20032;-46
2023/04/21 04:20:50;;;;;;;39.40;30.75;;;;;;;7.92;99.46;101248.81;5094958;28;20047;-44
2023/04/21 04:23:15;;;;;;;39.13;30.23;;;;;;;7.93;99.55;101244.97;5093972;28;20024;-43
2023/04/21 04:25:41;;;;;;;40.80;31.48;;;;;;;7.89;99.67;101252.13;5095057;28;20448;-43
2023/04/21 04:28:06;;;;;;;39.90;30.92;;;;;;;7.85;99.88;101249.09;5095070;28;20499;-44
2023/04/21 04:30:32;;;;;;;40.17;31.42;;;;;;;7.85;99.96;101249.09;5094943;28;20016;-46
2023/04/21 04:32:58;;;;;;;40.45;31.17;;;;;;;7.79;99.96;101244.72;5094810;28;20032;-42
2023/04/21 04:35:23;;;;;;;40.90;31.35;;;;;;;7.85;100.00;101249.09;5094378;28;20024;-43
2023/04/21 04:37:49;;;;;;;40.08;30.83;;;;;;;7.78;100.00;101238.41;5091600;28;20032;-44
2023/04/21 04:40:14;;;;;;;40.42;30.48;;;;;;;7.84;100.00;101249.38;5093181;28;20044;-42
2023/04/21 04:42:41;;;;;;;41.10;31.20;;;;;;;7.79;100.00;101251.03;5094638;28;20098;-42
2023/04/21 04:45:07;;;;;;;40.05;30.90;;;;;;;7.77;100.00;101242.25;5094738;28;20024;-43
2023/04/21 04:47:33;;;;;;;38.92;30.50;;;;;;;7.76;100.00;101259.88;5094553;28;20036;-42
2023/04/21 04:49:58;;;;;;;42.00;31.75;;;;;;;7.77;100.00;101258.78;5094349;28;20047;-42
2023/04/21 04:52:24;;;;;;;41.83;32.25;;;;;;;7.78;100.00;101254.09;5094373;28;20028;-43
2023/04/21 04:54:49;;;;;;;40.10;30.90;;;;;;;7.76;100.00;101248.84;5094592;28;20450;-42
2023/04/21 04:57:15;;;;;;;43.03;32.53;;;;;;;7.75;100.00;101255.47;5094465;28;20028;-43
2023/04/21 04:59:40;;;;;;;42.83;32.78;;;;;;;7.74;100.00;101255.75;5094361;28;20040;-43
2023/04/21 05:02:06;;;;;;;42.25;33.25;;;;;;;7.72;100.00;101253.25;5094464;28;20024;-44
2023/04/21 05:04:33;;;;;;;42.40;32.10;;;;;;;7.64;100.00;101254.66;5094610;28;20091;-42
2023/04/21 05:06:59;;;;;;;41.30;32.15;;;;;;;7.74;100.00;101264.03;5094176;28;20047;-43
2023/04/21 05:09:24;;;;;;;40.97;31.50;;;;;;;7.71;100.00;101262.63;5094465;28;20036;-43
2023/04/21 05:11:50;;;;;;;42.88;32.85;;;;;;;7.68;100.00;101265.94;5094304;28;20595;-43
2023/04/21 05:14:17;;;;;;;42.47;32.70;;;;;;;7.70;100.00;101262.91;5094209;28;20039;-44
2023/04/21 05:16:43;;;;;;;43.33;33.13;;;;;;;7.73;100.00;101262.34;5094138;28;20485;-43
2023/04/21 05:19:08;;;;;;;41.30;32.40;;;;;;;7.71;100.00;101267.31;5093917;28;20039;-46
2023/04/21 05:21:33;;;;;;;44.10;32.42;;;;;;;7.74;100.00;101275.03;5093141;28;20093;-43
2023/04/21 05:23:59;;;;;;;45.42;32.63;;;;;;;7.71;100.00;101276.38;5094458;28;20032;-43
2023/04/21 05:26:26;;;;;;;44.22;33.65;;;;;;;7.71;100.00;101279.13;5094102;28;20413;-44
2023/04/21 05:28:53;;;;;;;43.78;34.05;;;;;;;7.72;100.00;101285.50;5093893;28;20100;-43
2023/04/21 05:31:18;;;;;;;44.35;33.25;;;;;;;7.73;100.00;101279.69;5093885;28;20078;-43
2023/04/21 05:33:43;;;;;;;43.90;32.78;;;;;;;7.75;100.00;101283.00;5093781;28;20020;-44
2023/04/21 05:36:09;;;;;;;45.00;33.55;;;;;;;7.76;100.00;101283.81;5093878;28;20473;-43
2023/04/21 05:38:35;;;;;;;45.55;33.05;;;;;;;7.77;100.00;101286.31;5089390;28;20043;-43
2023/04/21 05:41:01;;;;;;;44.47;33.83;;;;;;;7.78;100.00;101290.72;5094117;28;20056;-43
2023/04/21 05:43:27;;;;;;;42.25;33.38;;;;;;;7.81;100.00;101286.59;5093893;28;20035;-44
2023/04/21 05:45:52;;;;;;;45.30;34.35;;;;;;;7.84;100.00;101287.97;5093442;28;20036;-43
2023/04/21 05:48:17;;;;;;;43.38;33.15;;;;;;;7.84;100.00;101287.97;5093160;28;20380;-43
2023/04/21 05:50:42;;;;;;;43.95;33.47;;;;;;;7.89;100.00;101298.97;5091301;28;20177;-43
2023/04/21 05:53:08;;;;;;;44.10;34.28;;;;;;;7.91;100.00;101292.09;5090830;28;20483;-43
2023/04/21 05:55:34;;;;;;;44.03;34.53;;;;;;;7.92;100.00;101301.16;5093280;28;20044;-43
2023/04/21 05:57:59;;;;;;;44.67;34.22;;;;;;;7.92;100.00;101298.41;5093019;28;20024;-44
2023/04/21 06:00:24;;;;;;;44.53;33.80;;;;;;;7.95;100.00;101300.63;5080843;28;20081;-43
2023/04/21 06:02:50;;;;;;;46.53;34.83;;;;;;;7.98;100.00;101300.06;5093170;28;20416;-43
2023/04/21 06:05:15;;;;;;;43.50;33.78;;;;;;;8.02;100.00;101295.66;5090647;28;20047;-43
2023/04/21 06:07:40;;;;;;;44.78;34.80;;;;;;;8.07;100.00;101298.41;5092697;28;20123;-44
2023/04/21 06:10:06;;;;;;;43.90;33.58;;;;;;;8.13;100.00;101290.94;5093586;28;20028;-43
2023/04/21 06:12:32;;;;;;;47.50;35.65;;;;;;;8.17;100.00;101286.53;5093039;28;20028;-45
2023/04/21 06:14:58;;;;;;;43.33;34.33;;;;;;;8.23;100.00;101284.59;5093076;28;20086;-45
2023/04/21 06:17:23;;;;;;;45.83;35.03;;;;;;;8.25;100.00;101282.38;5092865;28;20369;-42
2023/04/21 06:19:52;;;;;;;45.60;34.60;;;;;;;8.36;100.00;101285.94;5092887;28;20036;-44
2023/04/21 06:22:21;;;;;;;45.03;35.53;;;;;;;8.39;100.00;101286.19;5093164;28;20085;-43
2023/04/21 06:24:46;;;;;;;46.22;34.78;;;;;;;8.43;100.00;101278.19;5091693;28;20451;-43
2023/04/21 06:27:12;;;;;;;44.40;34.55;;;;;;;8.47;100.00;101287.59;5089974;28;20115;-42
2023/04/21 06:29:38;;;;;;;45.75;34.97;;;;;;;8.51;100.00;101282.31;5091203;28;20082;-43
2023/04/21 06:32:04;;;;;;;46.88;36.05;;;;;;;8.54;100.00;101285.34;5079693;28;20112;-44
2023/04/21 06:34:30;;;;;;;45.25;34.95;;;;;;;8.63;100.00;101276.47;5072194;28;20037;-43
2023/04/21 06:36:55;;;;;;;44.28;34.58;;;;;;;8.67;100.00;101277.59;5083679;28;20093;-45
2023/04/21 06:39:20;;;;;;;46.08;35.85;;;;;;;8.70;100.00;101279.75;5092504;28;20024;-42
2023/04/21 06:41:46;;;;;;;46.05;34.75;;;;;;;8.71;100.00;101281.41;5092461;28;20047;-45
2023/04/21 06:44:12;;;;;;;45.55;34.05;;;;;;;8.74;100.00;101284.41;5092485;28;20024;-43
2023/04/21 06:46:39;;;;;;;46.85;35.83;;;;;;;8.74;100.00;101284.41;5092295;28;20028;-43
2023/04/21 06:49:05;;;;;;;45.10;34.60;;;;;;;8.81;100.00;101289.63;5092616;28;20016;-42
2023/04/21 06:51:31;;;;;;;44.67;34.67;;;;;;;8.85;100.00;101276.09;5092411;28;20027;-43
2023/04/21 06:53:56;;;;;;;43.42;33.05;;;;;;;8.89;100.00;101285.47;5090988;28;20031;-43
2023/04/21 06:56:21;;;;;;;42.83;33.65;;;;;;;8.92;100.00;101276.63;5092138;28;20032;-43
2023/04/21 06:58:47;;;;;;;42.10;32.33;;;;;;;9.02;100.00;101290.34;5092244;28;20028;-43
2023/04/21 07:01:12;;;;;;;41.60;33.38;;;;;;;9.09;100.00;101289.22;5092139;28;20032;-44
2023/04/21 07:03:37;;;;;;;44.13;33.85;;;;;;;9.15;100.00;101277.03;5092126;28;20096;-43
2023/04/21 07:06:03;;;;;;;42.20;32.90;;;;;;;9.20;100.00;101285.31;5091666;28;20032;-43
2023/04/21 07:08:28;;;;;;;42.88;32.38;;;;;;;9.26;100.00;101289.66;5092174;28;20032;-43
2023/04/21 07:10:53;;;;;;;42.85;33.45;;;;;;;9.16;100.00;101254.66;5092092;28;20024;-43
2023/04/21 07:13:19;;;;;;;44.30;34.30;;;;;;;9.37;100.00;101273.84;5091916;28;20471;-43
2023/04/21 07:15:44;;;;;;;42.28;33.97;;;;;;;9.47;100.00;101284.81;5092021;28;20032;-44
2023/04/21 07:18:10;;;;;;;42.58;32.58;;;;;;;9.55;100.00;101283.38;5091543;28;20024;-42
2023/04/21 07:20:35;;;;;;;42.15;33.25;;;;;;;9.64;100.00;101287.19;5091855;28;20031;-45
2023/04/21 07:23:00;;;;;;;42.13;32.65;;;;;;;9.70;100.00;101284.34;5091823;28;20073;-43
2023/04/21 07:25:26;;;;;;;40.33;31.73;;;;;;;9.76;100.00;101289.56;5091787;28;20388;-43
2023/04/21 07:27:51;;;;;;;37.35;29.83;;;;;;;9.96;100.00;101284.97;5091015;28;20107;-41
2023/04/21 07:30:17;;;;;;;39.83;30.70;;;;;;;10.03;99.43;101282.66;5091517;28;20027;-42
2023/04/21 07:32:42;;;;;;;39.88;31.35;;;;;;;10.10;98.16;101276.81;5091149;28;20028;-42
2023/04/21 07:35:08;;;;;;;37.20;27.15;;;;;;;10.26;98.83;101271.94;5091392;28;20417;-42
2023/04/21 07:37:33;;;;;;;39.90;31.05;;;;;;;10.28;97.33;101269.72;5076254;28;20039;-42
2023/04/21 07:39:58;;;;;;;40.10;30.65;;;;;;;10.30;96.82;101264.69;5068485;28;20044;-43
2023/04/21 07:42:25;;;;;;;40.22;32.05;;;;;;;10.35;96.68;101269.34;5083336;28;20514;-42
2023/04/21 07:44:51;;;;;;;34.30;26.90;;;;;;;10.52;95.66;101271.66;5094097;28;20070;-42
2023/04/21 07:47:17;;;;;;;38.63;31.13;;;;;;;10.51;95.96;101270.00;5098371;28;20036;-43
2023/04/21 07:49:42;;;;;;;30.92;23.50;;;;;;;10.73;95.51;101270.28;5098675;28;20020;-42
2023/04/21 07:52:07;;;;;;;37.67;30.67;;;;;;;10.68;93.06;101272.31;5088881;28;20080;-42
2023/04/21 07:54:33;;;;;;;38.30;30.45;;;;;;;10.73;93.36;101272.22;5095668;28;20302;-43
2023/04/21 07:56:58;;;;;;;37.55;29.88;;;;;;;10.72;93.50;101274.19;5096997;28;20453;-42
2023/04/21 07:59:24;;;;;;;35.88;27.98;;;;;;;10.76;92.32;101274.41;5096876;28;20077;-42
2023/04/21 08:01:50;;;;;;;37.70;30.02;;;;;;;10.74;92.31;101273.88;5095216;28;20677;-42
2023/04/21 08:04:16;;;;;;;36.33;29.20;;;;;;;10.71;93.38;101272.53;5097331;28;20028;-44
2023/04/21 08:06:41;;;;;;;35.05;28.10;;;;;;;10.74;92.99;101271.94;5097020;28;20719;-43
2023/04/21 08:09:06;;;;;;;37.42;29.60;;;;;;;10.74;93.53;101271.09;5096884;28;20028;-41
2023/04/21 08:11:32;;;;;;;33.30;27.38;;;;;;;10.69;92.50;101260.13;5096929;28;20028;-42
2023/04/21 08:13:57;;;;;;;36.47;26.90;;;;;;;10.84;90.69;101276.50;5096924;28;20032;-42
2023/04/21 08:16:22;;;;;;;34.20;27.15;;;;;;;10.86;89.67;101279.00;5096845;28;20468;-42
2023/04/21 08:18:48;;;;;;;34.03;27.63;;;;;;;10.89;89.65;101276.47;5096991;28;20354;-43
2023/04/21 08:21:13;;;;;;;32.72;25.75;;;;;;;10.99;89.24;101266.34;5095789;28;20111;-43
2023/04/21 08:23:39;;;;;;;32.72;26.48;;;;;;;11.08;89.68;101276.44;5094112;28;20028;-42
2023/04/21 08:26:04;;;;;;;32.65;25.55;;;;;;;11.14;88.79;101276.41;5094783;28;20161;-43
2023/04/21 08:28:30;;;;;;;33.55;25.85;;;;;;;11.17;87.44;101278.53;5096511;28;20142;-42
2023/04/21 08:30:55;;;;;;;31.65;25.50;;;;;;;11.17;87.55;101267.47;5096043;28;20477;-43
2023/04/21 08:33:20;;;;;;;35.53;27.45;;;;;;;11.20;86.61;101264.91;5094810;28;20027;-43
2023/04/21 08:35:46;;;;;;;33.17;27.05;;;;;;;11.22;86.44;101268.22;5096548;28;20104;-43
2023/04/21 08:38:11;;;;;;;33.20;27.17;;;;;;;11.21;87.31;101266.56;5096493;28;20081;-42
2023/04/21 08:40:37;;;;;;;34.38;29.20;;;;;;;11.22;87.45;101259.91;5096510;28;20392;-42
2023/04/21 08:43:07;;;;;;;33.25;28.02;;;;;;;11.34;87.62;101261.41;5094849;28;20047;-39
2023/04/21 08:45:33;;;;;;;34.08;28.67;;;;;;;11.39;87.95;101267.69;5096016;28;20031;-42
2023/04/21 08:48:00;;;;;;;35.05;29.50;;;;;;;11.44;87.86;101266.78;5096120;28;20040;-43
2023/04/21 08:50:28;;;;;;;36.13;29.92;;;;;;;11.46;88.07;101255.38;5096101;28;20476;-42
2023/04/21 08:52:54;;;;;;;34.97;28.95;;;;;;;11.53;88.89;101251.13;5082351;28;20035;-43
2023/04/21 08:55:28;;;;;;;31.63;26.27;;;;;;;11.61;86.43;101252.38;5074709;28;20040;-43
2023/04/21 08:57:53;;;;;;;32.45;25.63;;;;;;;11.69;85.52;101237.81;5071016;28;20037;-42
2023/04/21 09:00:19;;;;;;;33.25;26.60;;;;;;;11.73;85.40;101256.59;5072318;28;20051;-43
2023/04/21 09:02:55;;;;;;;32.88;26.73;;;;;;;11.73;85.50;101240.81;5081418;28;20032;-42
2023/04/21 09:05:23;;;;;;;32.10;26.33;;;;;;;11.83;86.55;101242.56;5092973;28;20483;-44
2023/04/21 09:07:48;;;;;;;33.20;26.98;;;;;;;11.88;85.74;101252.72;5092778;28;20035;-43
2023/04/21 09:10:13;;;;;;;33.47;27.80;;;;;;;11.92;87.19;101254.59;5087116;28;20369;-42
2023/04/21 09:12:41;;;;;;;33.83;28.42;;;;;;;11.96;86.00;101252.88;5081496;28;20648;-41
2023/04/21 09:15:09;;;;;;;31.42;26.23;;;;;;;12.01;84.24;101246.44;5092813;28;20062;-42
2023/04/21 09:17:35;;;;;;;31.63;26.15;;;;;;;12.10;85.69;101254.84;5092544;28;20024;-41
2023/04/21 09:20:12;;;;;;;31.40;25.85;;;;;;;12.18;83.75;101251.38;5086303;28;20036;-41
2023/04/21 09:22:37;;;;;;;32.17;26.48;;;;;;;12.27;84.55;101251.47;5092289;28;20052;-41
2023/04/21 09:25:03;;;;;;;31.52;26.67;;;;;;;12.37;82.96;101259.59;5092216;28;20406;-41
2023/04/21 09:27:28;;;;;;;33.17;26.63;;;;;;;12.47;82.40;101253.84;5092185;28;20036;-42
2023/04/21 09:29:53;;;;;;;31.88;27.02;;;;;;;12.52;83.40;101241.81;5091436;28;20035;-42
2023/04/21 09:32:19;;;;;;;33.08;26.75;;;;;;;12.58;83.08;101236.97;5092318;28;20032;-43
2023/04/21 09:34:45;;;;;;;31.42;26.45;;;;;;;12.67;83.47;101248.16;5092152;28;20039;-40
2023/04/21 09:37:13;;;;;;;31.17;25.42;;;;;;;12.77;82.31;101248.78;5092016;28;20024;-43
2023/04/21 09:39:38;;;;;;;30.27;25.13;;;;;;;12.83;82.45;101243.94;5087425;28;20035;-41
2023/04/21 09:42:04;;;;;;;30.20;24.45;;;;;;;12.97;80.59;101252.22;5092126;28;20031;-42
2023/04/21 09:44:29;;;;;;;28.60;23.10;;;;;;;13.00;78.88;101243.25;5090682;28;20032;-46
2023/04/21 09:47:03;;;;;;;27.20;22.15;;;;;;;13.12;77.85;101245.50;5091452;28;20107;-42
2023/04/21 09:49:32;;;;;;;29.55;23.52;;;;;;;13.02;78.72;101220.75;5091922;28;20417;-42
2023/04/21 09:51:59;;;;;;;28.00;22.15;;;;;;;13.19;77.69;101247.81;5092048;28;20038;-41
2023/04/21 09:54:29;;;;;;;26.98;21.77;;;;;;;13.24;77.34;101236.59;5092090;28;20020;-42
2023/04/21 09:56:56;;;;;;;27.60;22.35;;;;;;;13.33;77.27;101222.75;5091949;28;20032;-41
2023/04/21 09:59:36;;;;;;;28.05;22.30;;;;;;;13.39;75.95;101239.03;5091773;28;20047;-41
2023/04/21 10:02:06;;;;;;;28.25;22.00;;;;;;;13.46;75.04;101237.78;5084619;28;20047;-41
2023/04/21 10:04:33;;;;;;;28.55;23.38;;;;;;;13.53;77.78;101233.41;5091525;28;20032;-41
2023/04/21 10:07:02;;;;;;;30.25;22.95;;;;;;;13.62;76.44;101227.91;5089985;28;20182;-41
2023/04/21 10:09:35;;;;;;;28.92;23.35;;;;;;;13.62;76.69;101219.56;5091244;28;20070;-42
2023/04/21 10:12:02;;;;;;;;;;;;;;;13.70;78.62;101226.31;5092142;28;20066;-42
2023/04/21 10:14:27;;;;;;;27.05;22.55;;;;;;;13.75;75.52;101220.63;5091677;28;19912;-41
2023/04/21 10:16:57;;;;;;;29.92;23.92;;;;;;;13.79;76.10;101224.38;5091089;28;20036;-42
2023/04/21 10:19:24;;;;;;;30.88;25.30;;;;;;;13.84;76.79;101215.94;5051780;28;20033;-41
2023/04/21 10:21:50;;;;;;;28.55;22.90;;;;;;;13.93;73.91;101215.16;5069857;28;20051;-41
2023/04/21 10:24:15;;;;;;;28.50;23.98;;;;;;;13.98;74.81;101201.13;5088391;28;20357;-41
2023/04/21 10:26:41;;;;;;;29.73;24.17;;;;;;;14.07;75.57;101213.09;5090520;28;20054;-42
2023/04/21 10:29:08;;;;;;;28.92;24.58;;;;;;;14.13;75.20;101205.41;5090262;28;20043;-41
2023/04/21 10:31:50;;;;;;;26.65;21.60;;;;;;;14.09;73.06;101201.63;5090520;28;20042;-42
2023/04/21 10:34:16;;;;;;;29.73;25.35;;;;;;;14.08;73.67;101206.38;5091262;28;20078;-41
2023/04/21 10:37:07;;;;;;;30.45;25.92;;;;;;;14.00;73.92;101196.03;5089859;28;20511;-42
2023/04/21 10:39:41;;;;;;;29.48;25.13;;;;;;;13.95;73.53;101196.19;5090625;28;20047;-41
2023/04/21 10:42:19;;;;;;;30.10;24.65;;;;;;;13.97;73.34;101194.72;5089594;28;20381;-42
2023/04/21 10:44:56;;;;;;;28.15;22.85;;;;;;;14.01;73.02;101178.19;5090997;28;20032;-42
2023/04/21 10:47:26;;;;;;;26.13;21.80;;;;;;;14.07;72.74;101176.94;5091153;28;20020;-42
2023/04/21 10:49:54;;;;;;;30.55;25.35;;;;;;;14.10;72.74;101170.72;5091426;28;20024;-43
2023/04/21 10:52:20;;;;;;;29.20;23.80;;;;;;;14.16;73.20;101175.00;5091235;28;20055;-42
2023/04/21 10:54:45;;;;;;;28.33;23.58;;;;;;;14.23;72.80;101170.91;5091307;28;20066;-42
2023/04/21 10:57:18;;;;;;;30.07;25.90;;;;;;;14.24;73.86;101162.25;5090912;28;20032;-43
2023/04/21 10:59:45;;;;;;;26.13;20.83;;;;;;;14.22;70.49;101164.50;5071004;28;20278;-42
2023/04/21 11:02:12;;;;;;;28.70;25.15;;;;;;;14.16;71.05;101157.47;5069378;28;20029;-42
2023/04/21 11:04:40;;;;;;;32.03;27.85;;;;;;;14.15;71.96;101161.41;5069033;28;20082;-42
2023/04/21 11:07:15;;;;;;;29.55;25.88;;;;;;;14.18;71.50;101157.97;5070344;28;20040;-42